Time;durP1;ratioP1;P1;durP2;ratioP2;P2;SDS_P1;SDS_P2;PMS_P1;PMS_P2;Temp;Humidity;BMP_temperature;BMP_pressure;BME280_temperature;BME280_humidity;BME280_pressure;Samples;Min_cycle;Max_cycle;Signal;HPM_P1;HPM_P2
2023/03/08 00:00:15;;;;;;;59.10;21.42;;;;;;;-1.56;100.00;99944.25;5093305;28;20092;-96
2023/03/08 00:02:41;;;;;;;50.77;18.77;;;;;;;-1.63;100.00;99930.28;5074580;28;20067;-95
2023/03/08 00:13:19;;;;;;;54.10;19.60;;;;;;;-1.71;100.00;99917.31;5943976;22;20029;-96
2023/03/08 00:15:44;;;;;;;54.33;19.13;;;;;;;-1.58;100.00;99937.56;5077173;28;20025;-96
2023/03/08 00:18:17;;;;;;;56.50;20.42;;;;;;;-1.72;100.00;99913.06;5095173;28;20027;-96
2023/03/08 00:20:43;;;;;;;52.90;19.37;;;;;;;-1.52;100.00;99937.56;5097772;28;20009;-96
2023/03/08 00:23:39;;;;;;;52.60;19.38;;;;;;;-1.49;100.00;99946.06;5100445;28;20068;-96
2023/03/08 00:26:06;;;;;;;52.75;18.83;;;;;;;-1.52;100.00;99944.66;5099005;28;20020;-96
2023/03/08 00:28:33;;;;;;;55.30;19.15;;;;;;;-1.55;100.00;99948.47;5092908;28;20092;-96
2023/03/08 00:31:09;;;;;;;57.17;19.03;;;;;;;-1.71;100.00;99923.41;5101827;28;20024;-96
2023/03/08 00:33:37;;;;;;;52.20;20.17;;;;;;;-1.63;100.00;99926.84;5094593;28;20282;-96
2023/03/08 00:36:21;;;;;;;53.53;20.17;;;;;;;-1.58;100.00;99921.81;5093401;28;20067;-96
2023/03/08 00:38:52;;;;;;;55.25;20.50;;;;;;;-1.55;100.00;99931.91;5090229;28;20100;-96
2023/03/08 00:41:20;;;;;;;57.58;20.55;;;;;;;-1.60;100.00;99923.81;5066879;28;20061;-96
2023/03/08 00:43:50;;;;;;;55.30;21.35;;;;;;;-1.59;100.00;99925.44;5095130;28;20112;-96
2023/03/08 00:46:21;;;;;;;57.47;21.27;;;;;;;-1.40;100.00;99945.69;5096340;28;20028;-96
2023/03/08 00:48:50;;;;;;;55.70;20.83;;;;;;;-1.58;100.00;99919.16;5113650;28;20024;-96
2023/03/08 00:51:25;;;;;;;57.47;20.07;;;;;;;-1.52;100.00;99926.25;5094192;28;20305;-96
2023/03/08 00:53:55;;;;;;;63.30;21.75;;;;;;;-1.55;100.00;99921.41;5094718;28;20074;-96
2023/03/08 00:56:26;;;;;;;60.53;22.00;;;;;;;-1.57;100.00;99919.00;5094783;28;20028;-96
2023/03/08 00:58:54;;;;;;;59.35;21.08;;;;;;;-1.47;100.00;99928.28;5091435;28;20119;-96
2023/03/08 01:01:20;;;;;;;64.68;23.83;;;;;;;-1.52;100.00;99910.50;5104616;28;20073;-96
2023/03/08 01:03:51;;;;;;;67.40;21.97;;;;;;;-1.48;100.00;99916.16;5102965;28;20117;-96
2023/03/08 01:06:20;;;;;;;71.13;23.42;;;;;;;-1.44;100.00;99917.38;5106276;28;20470;-96
2023/03/08 01:08:49;;;;;;;76.30;22.73;;;;;;;-1.47;100.00;99908.09;5101566;28;20035;-96
2023/03/08 01:11:24;;;;;;;82.95;26.52;;;;;;;-1.45;100.00;99905.25;5103519;28;20077;-96
2023/03/08 01:13:51;;;;;;;85.77;24.20;;;;;;;-1.27;100.00;99923.03;5102574;28;20081;-96
2023/03/08 01:16:25;;;;;;;88.40;25.57;;;;;;;-1.37;100.00;99902.44;5085618;28;20300;-96
2023/03/08 01:18:51;;;;;;;95.15;26.85;;;;;;;-1.31;100.00;99906.88;5102549;28;20027;-96
2023/03/08 01:21:19;;;;;;;91.90;25.02;;;;;;;-1.29;100.00;99904.06;5070725;28;20024;-96
2023/03/08 01:23:49;;;;;;;97.85;27.48;;;;;;;-1.35;100.00;99883.81;5052735;28;20036;-96
2023/03/08 01:26:26;;;;;;;101.78;26.73;;;;;;;-1.23;100.00;99882.19;5066710;28;20028;-96
2023/03/08 01:28:54;;;;;;;110.93;28.20;;;;;;;-1.31;100.00;99871.91;5085352;28;20042;-96
2023/03/08 01:31:26;;;;;;;93.90;26.57;;;;;;;-1.28;100.00;99866.25;5083667;28;20039;-96
2023/03/08 01:33:52;;;;;;;103.07;27.87;;;;;;;-1.19;100.00;99883.41;5102364;28;20289;-96
2023/03/08 01:36:21;;;;;;;96.88;25.35;;;;;;;-1.18;100.00;99864.00;5052061;28;20044;-96
2023/03/08 01:38:48;;;;;;;105.25;27.80;;;;;;;-1.23;100.00;99855.91;5087965;28;20036;-96
2023/03/08 01:41:30;;;;;;;107.45;26.92;;;;;;;-1.19;100.00;99851.88;5110907;28;20024;-96
2023/03/08 01:44:04;;;;;;;96.72;24.17;;;;;;;-1.20;100.00;99850.25;5115485;28;20054;-96
2023/03/08 01:46:34;;;;;;;109.10;28.20;;;;;;;-1.20;100.00;99846.81;5087314;28;20044;-96
2023/03/08 01:49:25;;;;;;;99.47;26.10;;;;;;;-1.20;100.00;99850.25;5076600;28;20024;-96
2023/03/08 01:52:02;;;;;;;106.97;25.87;;;;;;;-1.18;100.00;99836.88;5108941;28;20051;-96
2023/03/08 01:54:54;;;;;;;103.88;25.75;;;;;;;-1.17;100.00;99839.31;5088334;28;20050;-96
2023/03/08 01:57:26;;;;;;;99.85;26.13;;;;;;;-1.07;100.00;99847.59;5093993;28;20078;-96
2023/03/08 02:00:01;;;;;;;115.57;26.52;;;;;;;-1.01;100.00;99848.63;5108075;28;20399;-96
2023/03/08 02:02:43;;;;;;;111.68;26.10;;;;;;;-0.89;100.00;99866.38;5083091;28;20548;-96
2023/03/08 02:05:13;;;;;;;116.13;26.02;;;;;;;-1.07;100.00;99834.44;5090409;28;20070;-96
2023/03/08 02:07:42;;;;;;;104.43;26.00;;;;;;;-1.08;100.00;99822.31;5100853;28;20070;-96
2023/03/08 02:10:39;;;;;;;104.80;28.27;;;;;;;-1.03;100.00;99826.97;5113508;28;20016;-96
2023/03/08 02:13:11;;;;;;;102.27;25.37;;;;;;;-0.89;100.00;99840.09;5114359;28;20285;-96
2023/03/08 02:16:05;;;;;;;108.55;26.80;;;;;;;-0.98;100.00;99807.94;5094745;28;20025;-96
2023/03/08 02:19:02;;;;;;;104.65;26.65;;;;;;;-0.94;100.00;99814.41;5097591;28;20727;-96
2023/03/08 02:22:23;;;;;;;99.57;24.38;;;;;;;-0.76;100.00;99829.50;5086770;28;20032;-96
2023/03/08 02:28:24;;;;;;;107.00;27.10;;;;;;;-0.84;100.00;99790.31;5112938;28;20042;-96
2023/03/08 02:30:57;;;;;;;106.85;24.75;;;;;;;-0.75;100.00;99796.13;5081449;28;20135;-96
2023/03/08 02:33:27;;;;;;;112.78;27.80;;;;;;;-0.69;100.00;99804.00;5104643;28;20024;-96
2023/03/08 02:35:52;;;;;;;113.77;26.33;;;;;;;-0.72;100.00;99798.31;5085892;28;20379;-96
2023/03/08 02:38:20;;;;;;;140.40;29.20;;;;;;;-0.74;100.00;99800.38;5090301;28;20316;-96
2023/03/08 02:40:47;;;;;;;105.22;25.67;;;;;;;-0.74;100.00;99789.88;5074046;28;20019;-96
2023/03/08 02:43:13;;;;;;;120.45;28.10;;;;;;;-0.64;100.00;99800.75;5093011;28;20028;-96
2023/03/08 02:45:41;;;;;;;119.33;27.17;;;;;;;-0.73;100.00;99775.69;5074123;28;20020;-96
2023/03/08 02:48:07;;;;;;;125.28;27.80;;;;;;;-0.61;100.00;99801.13;5091343;28;20032;-95
2023/03/08 02:50:32;;;;;;;112.15;27.17;;;;;;;-0.61;100.00;99797.69;5074373;28;20024;-96
2023/03/08 02:52:58;;;;;;;105.43;24.30;;;;;;;-0.66;100.00;99787.81;5092747;28;20020;-96
2023/03/08 02:55:23;;;;;;;121.97;28.08;;;;;;;-0.71;100.00;99777.09;5093438;28;20035;-96
2023/03/08 02:57:49;;;;;;;94.83;24.10;;;;;;;-0.67;100.00;99786.19;5074680;28;20478;-96
2023/03/08 03:00:16;;;;;;;102.53;24.73;;;;;;;-0.69;100.00;99771.59;5084556;28;20031;-96
2023/03/08 03:02:41;;;;;;;106.68;25.65;;;;;;;-0.71;100.00;99760.47;5072913;28;20044;-96
2023/03/08 03:05:11;;;;;;;100.03;25.23;;;;;;;-0.66;100.00;99779.09;5095960;28;20033;-96
2023/03/08 03:07:44;;;;;;;94.35;24.77;;;;;;;-0.63;100.00;99781.31;5103773;28;20020;-96
2023/03/08 03:10:11;;;;;;;97.82;24.27;;;;;;;-0.69;100.00;99774.25;5102829;28;20032;-96
2023/03/08 03:12:38;;;;;;;93.85;24.13;;;;;;;-0.85;100.00;99752.66;5084105;28;20029;-96
2023/03/08 03:15:06;;;;;;;83.63;23.90;;;;;;;-0.85;100.00;99731.59;5081148;28;20040;-96
2023/03/08 03:17:32;;;;;;;94.72;22.83;;;;;;;-0.79;100.00;99745.75;5096099;28;20036;-96
2023/03/08 03:19:57;;;;;;;88.43;21.57;;;;;;;-0.85;100.00;99751.84;5088476;28;20027;-96
2023/03/08 03:22:23;;;;;;;84.60;22.92;;;;;;;-0.73;100.00;99755.44;5087004;28;20497;-96
2023/03/08 03:24:49;;;;;;;91.60;22.63;;;;;;;-0.87;100.00;99744.16;5092210;28;20051;-96
2023/03/08 03:27:15;;;;;;;88.60;22.17;;;;;;;-0.75;100.00;99754.03;5074066;28;20024;-96
2023/03/08 03:29:41;;;;;;;85.97;23.10;;;;;;;-0.82;100.00;99746.97;5070168;28;20028;-96
2023/03/08 03:32:07;;;;;;;88.85;24.58;;;;;;;-0.73;100.00;99744.13;5071538;28;20055;-96
2023/03/08 03:34:32;;;;;;;90.27;24.07;;;;;;;-0.71;100.00;99737.63;5085921;28;20386;-96
2023/03/08 03:36:57;;;;;;;100.73;27.97;;;;;;;-0.75;100.00;99715.38;5091335;28;20794;-96
2023/03/08 03:39:23;;;;;;;85.93;23.77;;;;;;;-0.74;100.00;99703.84;5074242;28;20027;-96
2023/03/08 03:41:48;;;;;;;92.83;24.00;;;;;;;-0.66;100.00;99715.94;5096030;28;20028;-96
2023/03/08 03:44:13;;;;;;;86.40;22.57;;;;;;;-0.83;100.00;99684.84;5106901;28;20020;-96
2023/03/08 03:46:39;;;;;;;88.53;23.58;;;;;;;-0.64;100.00;99716.53;5106622;28;20031;-96
2023/03/08 03:49:06;;;;;;;91.27;23.93;;;;;;;-0.63;100.00;99712.88;5080560;28;20110;-96
2023/03/08 03:51:32;;;;;;;80.50;23.73;;;;;;;-0.83;100.00;99691.97;5085131;28;20020;-96
2023/03/08 03:53:57;;;;;;;93.13;26.10;;;;;;;-0.65;100.00;99714.91;5103923;28;20016;-96
2023/03/08 03:56:25;;;;;;;84.53;25.03;;;;;;;-0.70;100.00;99705.03;5098687;28;20024;-95
2023/03/08 03:58:54;;;;;;;100.32;27.25;;;;;;;-0.63;100.00;99710.25;5101332;28;20069;-96
2023/03/08 04:01:25;;;;;;;85.28;24.35;;;;;;;-0.65;100.00;99704.41;5087035;28;20036;-95
2023/03/08 04:03:51;;;;;;;81.22;22.85;;;;;;;-0.82;100.00;99681.22;5101639;28;20028;-96
2023/03/08 04:06:21;;;;;;;100.45;25.50;;;;;;;-0.75;100.00;99693.53;5087219;28;20020;-96
2023/03/08 04:08:47;;;;;;;89.00;23.75;;;;;;;-0.79;100.00;99672.91;5090923;28;20059;-96
2023/03/08 04:11:21;;;;;;;77.28;22.80;;;;;;;-0.85;100.00;99673.75;5075436;28;20032;-96
2023/03/08 04:13:46;;;;;;;79.63;23.00;;;;;;;-0.74;100.00;99679.38;5088192;28;20040;-96
2023/03/08 04:16:17;;;;;;;87.17;23.73;;;;;;;-0.75;100.00;99683.81;5094670;28;20339;-96
2023/03/08 04:18:43;;;;;;;84.00;23.40;;;;;;;-0.69;100.00;99684.78;5076843;28;20040;-96
2023/03/08 04:21:09;;;;;;;76.37;21.50;;;;;;;-0.65;100.00;99678.91;5093638;28;20021;-96
2023/03/08 04:23:35;;;;;;;74.18;21.42;;;;;;;-0.67;100.00;99669.59;5095308;28;20024;-95
2023/03/08 04:26:01;;;;;;;71.18;20.13;;;;;;;-0.66;100.00;99660.69;5096319;28;20028;-96
2023/03/08 04:28:27;;;;;;;66.10;18.92;;;;;;;-0.63;100.00;99665.53;5097487;28;20044;-95
2023/03/08 04:30:53;;;;;;;78.57;22.25;;;;;;;-0.59;100.00;99653.56;5100594;28;20089;-95
2023/03/08 04:33:18;;;;;;;69.90;20.20;;;;;;;-0.58;100.00;99647.28;5094535;28;20012;-94
2023/03/08 04:35:44;;;;;;;69.72;20.13;;;;;;;-0.67;100.00;99630.13;5103354;28;20031;-95
2023/03/08 04:38:09;;;;;;;76.80;21.30;;;;;;;-0.57;100.00;99648.91;5092246;28;20606;-95
2023/03/08 04:41:00;;;;;;;68.87;19.23;;;;;;;-0.57;100.00;99641.00;5083656;28;20028;-95
2023/03/08 04:43:20;;;;;;;66.00;19.50;;;;;;;-0.58;100.00;99625.41;5095480;28;20036;-95
2023/03/08 04:45:45;;;;;;;70.00;20.47;;;;;;;-0.58;100.00;99631.50;5082009;28;20020;-95
2023/03/08 04:48:11;;;;;;;76.17;21.87;;;;;;;-0.54;100.00;99634.50;5097117;28;20024;-96
2023/03/08 04:50:38;;;;;;;73.77;21.90;;;;;;;-0.67;100.00;99604.63;5104301;28;20296;-96
2023/03/08 04:53:04;;;;;;;70.70;20.00;;;;;;;-0.52;100.00;99630.63;5082795;28;20059;-95
2023/03/08 04:55:29;;;;;;;72.53;21.83;;;;;;;-0.55;100.00;99619.72;5091331;28;20547;-94
2023/03/08 04:57:54;;;;;;;69.03;19.58;;;;;;;-0.60;100.00;99604.59;5094743;28;20028;-95
2023/03/08 05:00:21;;;;;;;75.13;20.67;;;;;;;-0.60;100.00;99596.69;5097205;28;20020;-96
2023/03/08 05:02:47;;;;;;;77.93;22.58;;;;;;;-0.61;100.00;99595.88;5076481;28;20059;-96
2023/03/08 05:05:12;;;;;;;66.27;20.60;;;;;;;-0.56;100.00;99600.50;5094582;28;20500;-95
2023/03/08 05:07:37;;;;;;;57.67;17.40;;;;;;;-0.65;100.00;99575.47;5094186;28;20544;-96
2023/03/08 05:10:03;;;;;;;66.87;19.70;;;;;;;-0.57;100.00;99585.75;5094712;28;20044;-96
2023/03/08 05:12:28;;;;;;;61.03;18.63;;;;;;;-0.68;100.00;99568.00;5079547;28;20059;-96
2023/03/08 05:14:54;;;;;;;62.57;17.20;;;;;;;-0.57;100.00;99580.47;5095148;28;20115;-93
2023/03/08 05:17:19;;;;;;;61.53;16.87;;;;;;;-0.67;100.00;99569.59;5093932;28;20024;-93
2023/03/08 05:19:44;;;;;;;55.60;17.03;;;;;;;-0.65;100.00;99567.56;5092713;28;20500;-92
2023/03/08 05:22:10;;;;;;;62.97;19.13;;;;;;;-0.60;100.00;99570.38;5090782;28;20038;-94
2023/03/08 05:24:39;;;;;;;58.13;17.50;;;;;;;-0.64;100.00;99558.66;5075678;28;20471;-93
2023/03/08 05:27:05;;;;;;;57.60;16.95;;;;;;;-0.67;100.00;99554.63;5076973;28;20085;-93
2023/03/08 05:29:33;;;;;;;62.77;17.53;;;;;;;-0.70;100.00;99544.53;5092340;28;20399;-94
2023/03/08 05:32:02;;;;;;;57.72;17.65;;;;;;;-0.63;100.00;99549.75;5082059;28;20029;-94
2023/03/08 05:34:28;;;;;;;53.15;16.85;;;;;;;-0.61;100.00;99547.72;5076210;28;20028;-94
2023/03/08 05:36:53;;;;;;;58.33;17.63;;;;;;;-0.67;100.00;99530.13;5093962;28;20067;-93
2023/03/08 05:39:19;;;;;;;57.83;17.67;;;;;;;-0.62;100.00;99536.38;5092800;28;20063;-93
2023/03/08 05:41:52;;;;;;;50.80;15.57;;;;;;;-0.68;100.00;99515.38;5093937;28;20134;-94
2023/03/08 05:44:18;;;;;;;50.95;14.48;;;;;;;-0.67;100.00;99509.91;5077297;28;20466;-94
2023/03/08 05:46:43;;;;;;;56.20;16.60;;;;;;;-0.61;100.00;99510.88;5083492;28;20016;-94
2023/03/08 05:49:08;;;;;;;50.60;15.77;;;;;;;-0.64;100.00;99514.72;5102233;28;20016;-93
2023/03/08 05:51:34;;;;;;;42.93;12.83;;;;;;;-0.66;100.00;99508.06;5114531;28;20038;-94
2023/03/08 05:53:59;;;;;;;41.50;13.07;;;;;;;-0.70;100.00;99499.81;5114183;28;20101;-93
2023/03/08 05:56:24;;;;;;;39.30;12.13;;;;;;;-0.73;100.00;99492.34;5112162;28;20031;-93
2023/03/08 05:58:51;;;;;;;34.97;11.80;;;;;;;-0.80;100.00;99489.78;5086013;28;20346;-92
2023/03/08 06:01:22;;;;;;;42.78;15.65;;;;;;;-0.83;100.00;99492.03;5098317;28;20046;-92
2023/03/08 06:03:50;;;;;;;36.33;11.97;;;;;;;-0.78;100.00;99493.00;5106869;28;20088;-93
2023/03/08 06:06:16;;;;;;;35.47;11.90;;;;;;;-0.94;100.00;99468.03;5110247;28;20036;-93
2023/03/08 06:08:42;;;;;;;34.50;11.40;;;;;;;-0.92;100.00;99465.22;5096268;28;20031;-93
2023/03/08 06:11:08;;;;;;;31.50;10.73;;;;;;;-0.89;100.00;99475.28;5073234;28;20028;-93
2023/03/08 06:13:34;;;;;;;29.25;10.77;;;;;;;-0.93;100.00;99471.47;5092127;28;20024;-93
2023/03/08 06:19:18;;;;;;;28.27;9.90;;;;;;;-0.96;100.00;99482.44;4989399;28;20113;-92
2023/03/08 06:22:20;;;;;;;25.05;9.02;;;;;;;-0.98;100.00;99482.63;5005573;28;20030;-95
2023/03/08 06:24:48;;;;;;;27.80;8.80;;;;;;;-1.07;100.00;99468.94;5016719;28;20041;-96
2023/03/08 06:27:14;;;;;;;22.20;9.63;;;;;;;-1.20;100.00;99449.84;4994059;28;20061;-93
2023/03/08 06:29:51;;;;;;;27.48;9.23;;;;;;;-1.10;100.00;99465.94;5019702;28;20041;-93
2023/03/08 06:32:17;;;;;;;17.70;4.57;;;;;;;-1.07;100.00;99470.78;5090272;28;20399;-91
2023/03/08 06:34:42;;;;;;;17.90;7.10;;;;;;;-1.15;100.00;99471.03;5091918;28;20039;-92
2023/03/08 06:37:11;;;;;;;19.20;6.93;;;;;;;-1.10;100.00;99476.47;5091527;28;20388;-96
2023/03/08 06:39:36;;;;;;;21.67;7.28;;;;;;;-1.13;100.00;99477.69;5088801;28;20035;-91
2023/03/08 06:42:07;;;;;;;17.03;7.00;;;;;;;-1.25;100.00;99451.28;5089125;28;20032;-89
2023/03/08 06:44:42;;;;;;;17.80;6.13;;;;;;;-1.32;100.00;99442.63;5090856;28;20024;-88
2023/03/08 06:47:19;;;;;;;15.83;5.90;;;;;;;-1.16;100.00;99467.59;5089507;28;20322;-90
2023/03/08 06:50:05;;;;;;;17.73;6.43;;;;;;;-1.35;100.00;99432.53;5089222;28;20107;-89
2023/03/08 06:52:36;;;;;;;15.52;6.15;;;;;;;-1.25;100.00;99450.47;5089517;28;20055;-88
2023/03/08 06:55:04;;;;;;;17.48;6.13;;;;;;;-1.24;100.00;99458.16;5089769;28;20020;-89
2023/03/08 06:57:29;;;;;;;12.40;4.75;;;;;;;-1.22;100.00;99465.81;5090442;28;20106;-88
2023/03/08 06:59:55;;;;;;;13.70;5.63;;;;;;;-1.20;100.00;99476.13;5085060;28;20082;-89
2023/03/08 07:02:20;;;;;;;12.30;4.63;;;;;;;-1.18;100.00;99479.34;5085762;28;20059;-89
2023/03/08 07:04:46;;;;;;;15.70;5.90;;;;;;;-1.23;100.00;99464.22;5085557;28;20020;-91
2023/03/08 07:07:11;;;;;;;14.10;5.40;;;;;;;-1.22;100.00;99463.19;5090510;28;20596;-90
2023/03/08 07:09:36;;;;;;;15.30;4.53;;;;;;;-1.20;100.00;99455.09;5076905;28;20142;-90
2023/03/08 07:12:02;;;;;;;15.20;5.10;;;;;;;-1.24;100.00;99457.34;5071750;28;20036;-89
2023/03/08 07:14:27;;;;;;;11.77;4.23;;;;;;;-1.22;100.00;99452.69;5070410;28;20024;-89
2023/03/08 07:16:53;;;;;;;12.03;3.70;;;;;;;-1.24;100.00;99450.28;5053132;28;20282;-92
2023/03/08 07:19:18;;;;;;;11.73;3.63;;;;;;;-1.23;100.00;99453.69;5034842;28;20028;-90
2023/03/08 07:22:11;;;;;;;6.80;3.23;;;;;;;-1.31;100.00;99438.19;5071595;28;20025;-88
2023/03/08 07:24:41;;;;;;;12.05;4.10;;;;;;;-1.27;100.00;99447.25;5059928;28;20139;-90
2023/03/08 07:27:06;;;;;;;13.80;3.50;;;;;;;-1.27;100.00;99440.19;5065419;28;20036;-89
2023/03/08 07:29:31;;;;;;;16.63;4.67;;;;;;;-1.29;100.00;99439.59;5050689;28;20031;-89
2023/03/08 07:31:56;;;;;;;9.33;3.40;;;;;;;-1.31;100.00;99439.00;5066115;28;20079;-90
2023/03/08 07:34:22;;;;;;;7.57;3.07;;;;;;;-1.30;100.00;99429.31;5068202;28;20090;-88
2023/03/08 07:36:48;;;;;;;10.77;3.85;;;;;;;-1.37;100.00;99403.06;5061930;28;20104;-88
2023/03/08 07:39:15;;;;;;;11.77;3.57;;;;;;;-1.28;100.00;99422.81;5049754;28;20025;-91
2023/03/08 07:41:40;;;;;;;7.68;3.78;;;;;;;-1.27;100.00;99410.44;5054797;28;20107;-89
2023/03/08 07:44:06;;;;;;;55.60;20.25;;;;;;;-1.19;100.00;99412.03;5069233;28;20123;-91
2023/03/08 07:46:32;;;;;;;19.63;6.83;;;;;;;-1.31;100.00;99399.56;5071827;28;20035;-92
2023/03/08 07:49:32;;;;;;;12.93;4.68;;;;;;;-1.12;100.00;99410.97;5046791;28;20587;-91
2023/03/08 07:52:39;;;;;;;10.05;4.70;;;;;;;-1.42;100.00;99366.09;5042290;28;20053;-91
2023/03/08 07:55:05;;;;;;;13.67;5.83;;;;;;;-1.22;100.00;99405.34;5053003;28;20402;-90
2023/03/08 07:58:04;;;;;;;16.95;6.93;;;;;;;-1.21;100.00;99404.34;5071557;28;20535;-91
2023/03/08 08:00:29;;;;;;;14.05;5.95;;;;;;;-1.34;100.00;99378.97;5071968;28;20028;-87
2023/03/08 08:02:55;;;;;;;10.27;5.47;;;;;;;-1.29;100.00;99380.97;5073517;28;20016;-87
2023/03/08 08:05:20;;;;;;;15.10;6.40;;;;;;;-1.16;100.00;99390.53;5066366;28;20496;-88
2023/03/08 08:07:46;;;;;;;19.43;8.97;;;;;;;-1.21;100.00;99385.94;5071100;28;20391;-87
2023/03/08 08:10:12;;;;;;;17.33;7.57;;;;;;;-1.16;100.00;99394.00;5068565;28;20017;-88
2023/03/08 08:12:38;;;;;;;22.90;8.15;;;;;;;-1.21;100.00;99388.56;5070483;28;20031;-88
2023/03/08 08:15:03;;;;;;;21.70;8.70;;;;;;;-1.21;100.00;99383.31;5065703;28;20020;-89
2023/03/08 08:17:28;;;;;;;19.83;7.90;;;;;;;-1.18;100.00;99382.88;5086268;28;20031;-87
2023/03/08 08:19:54;;;;;;;17.10;8.37;;;;;;;-1.13;100.00;99369.91;5072489;28;20282;-87
2023/03/08 08:22:19;;;;;;;26.93;9.70;;;;;;;-1.23;100.00;99380.09;5089156;28;20024;-87
2023/03/08 08:24:44;;;;;;;18.90;8.03;;;;;;;-1.12;100.00;99387.28;5090954;28;20089;-87
2023/03/08 08:27:10;;;;;;;15.87;6.83;;;;;;;-1.15;100.00;99374.56;5092487;28;20504;-87
2023/03/08 08:29:36;;;;;;;12.10;5.87;;;;;;;-1.22;100.00;99353.59;5091311;28;20469;-91
2023/03/08 08:32:03;;;;;;;12.25;5.38;;;;;;;-1.09;100.00;99346.59;5092917;28;20024;-91
2023/03/08 08:34:28;;;;;;;7.28;4.05;;;;;;;-1.06;100.00;99346.19;5091695;28;20495;-89
2023/03/08 08:36:53;;;;;;;10.33;3.77;;;;;;;-1.21;100.00;99338.63;5093109;28;20055;-89
2023/03/08 08:39:19;;;;;;;11.93;5.28;;;;;;;-1.14;100.00;99344.63;5092766;28;20028;-89
2023/03/08 08:41:44;;;;;;;9.70;5.07;;;;;;;-1.12;100.00;99342.59;5091623;28;20516;-89
2023/03/08 08:44:09;;;;;;;14.20;5.97;;;;;;;-1.12;100.00;99326.00;5093116;28;20027;-89
2023/03/08 08:46:35;;;;;;;10.40;4.93;;;;;;;-1.13;100.00;99325.22;5092679;28;20043;-89
2023/03/08 08:49:01;;;;;;;11.05;4.65;;;;;;;-1.13;100.00;99335.72;5091912;28;20073;-89
2023/03/08 08:51:26;;;;;;;8.57;4.27;;;;;;;-1.25;100.00;99326.94;5092158;28;20470;-88
2023/03/08 08:53:53;;;;;;;6.68;3.47;;;;;;;-1.20;100.00;99331.56;5092657;28;20020;-89
2023/03/08 08:56:23;;;;;;;9.73;4.17;;;;;;;-1.16;100.00;99341.41;5091870;28;20030;-88
2023/03/08 08:58:49;;;;;;;10.90;4.63;;;;;;;-1.13;100.00;99327.03;5090994;28;20282;-89
2023/03/08 09:01:17;;;;;;;10.70;5.40;;;;;;;-0.97;100.00;99360.63;5091742;28;20043;-89
2023/03/08 09:03:44;;;;;;;14.48;6.50;;;;;;;-0.95;100.00;99357.81;5092576;28;20020;-89
2023/03/08 09:06:09;;;;;;;15.45;6.22;;;;;;;-0.82;100.00;99370.03;5092526;28;20028;-89
2023/03/08 09:08:34;;;;;;;11.83;5.77;;;;;;;-0.83;100.00;99368.41;5092019;28;20020;-89
2023/03/08 09:11:26;;;;;;;11.77;5.50;;;;;;;-0.82;100.00;99367.41;5091577;28;20090;-90
2023/03/08 09:13:58;;;;;;;7.82;4.47;;;;;;;-0.88;100.00;99369.03;5070326;28;20419;-89
2023/03/08 09:16:29;;;;;;;11.80;5.47;;;;;;;-1.02;100.00;99342.09;5056197;28;20096;-89
2023/03/08 09:19:04;;;;;;;11.63;5.22;;;;;;;-1.08;100.00;99330.59;5051196;28;20431;-90
2023/03/08 09:21:32;;;;;;;11.43;5.75;;;;;;;-1.04;100.00;99312.59;5068243;28;20443;-90
2023/03/08 09:24:00;;;;;;;11.97;5.67;;;;;;;-0.92;100.00;99315.31;5071928;28;20074;-90
2023/03/08 09:26:30;;;;;;;10.00;5.20;;;;;;;-0.90;100.00;99312.44;5071633;28;20393;-89
2023/03/08 09:28:57;;;;;;;11.50;4.85;;;;;;;-0.84;100.00;99301.84;5068376;28;20048;-89
2023/03/08 09:31:23;;;;;;;11.60;5.07;;;;;;;-0.80;100.00;99284.59;5058052;28;20029;-89
2023/03/08 09:33:56;;;;;;;14.30;5.40;;;;;;;-0.79;100.00;99278.31;5061955;28;20029;-89
2023/03/08 09:43:37;;;;;;;11.88;5.78;;;;;;;-0.44;100.00;99287.38;4988449;28;20045;-88
2023/03/08 09:46:03;;;;;;;12.02;6.38;;;;;;;-0.56;100.00;99268.13;4990995;28;20044;-89
2023/03/08 09:48:30;;;;;;;16.92;6.88;;;;;;;-0.54;100.00;99252.91;4989315;28;20034;-89
2023/03/08 09:51:01;;;;;;;13.45;6.15;;;;;;;-0.34;100.00;99278.94;5034252;28;20067;-87
2023/03/08 09:53:33;;;;;;;18.05;7.18;;;;;;;-0.35;100.00;99251.03;5071918;28;20028;-90
2023/03/08 09:56:22;;;;;;;23.23;9.53;;;;;;;-0.25;100.00;99263.63;5071483;28;20055;-90
2023/03/08 09:59:01;;;;;;;19.40;9.65;;;;;;;-0.09;100.00;99270.91;5066931;28;20036;-90
2023/03/08 10:01:43;;;;;;;21.23;7.00;;;;;;;0.02;100.00;99258.78;5071168;28;20081;-90
2023/03/08 10:07:14;;;;;;;18.70;9.63;;;;;;;0.09;100.00;99256.84;5131433;23;20491;-91
2023/03/08 10:09:57;;;;;;;21.65;9.75;;;;;;;0.13;100.00;99230.84;5002331;28;20038;-90
2023/03/08 10:12:59;;;;;;;25.67;10.80;;;;;;;0.37;100.00;99263.28;5029849;28;20039;-91
2023/03/08 10:19:12;;;;;;;18.83;9.63;;;;;;;0.38;100.00;99251.72;5049213;22;20059;-94
2023/03/08 10:27:34;;;;;;;;;;;;;;;;;;;;;
2023/03/08 10:30:26;;;;;;;;;;;;;;;;;;;;;
2023/03/08 10:50:55;;;;;;;24.55;12.45;;;;;;;0.59;100.00;99202.09;5611323;22;20055;-96
2023/03/08 11:02:15;;;;;;;19.27;11.10;;;;;;;0.56;100.00;99203.38;5090771;28;20427;-96
2023/03/08 11:15:19;;;;;;;20.15;11.85;;;;;;;0.85;100.00;99242.19;5460592;22;20045;-96
2023/03/08 11:17:56;;;;;;;19.92;11.13;;;;;;;0.82;100.00;99250.56;5064920;28;20029;-96
2023/03/08 11:20:27;;;;;;;21.00;11.13;;;;;;;0.56;100.00;99229.72;5059969;28;20395;-96
2023/03/08 11:23:02;;;;;;;19.52;11.13;;;;;;;0.64;100.00;99246.22;5059493;28;20467;-96
2023/03/08 11:25:54;;;;;;;18.00;9.77;;;;;;;0.69;100.00;99228.69;5105007;28;20036;-96
2023/03/08 11:29:13;;;;;;;17.53;10.13;;;;;;;0.83;100.00;99218.66;5102649;28;20040;-96
2023/03/08 11:31:45;;;;;;;15.37;10.27;;;;;;;0.83;100.00;99223.16;5103010;28;20289;-96
2023/03/08 12:00:52;;;;;;;10.40;7.07;;;;;;;0.52;100.00;99170.59;5443831;22;20077;-94
2023/03/08 12:04:13;;;;;;;12.93;7.53;;;;;;;0.79;100.00;99170.09;5192870;22;20049;-96
2023/03/08 12:18:45;;;;;;;10.18;6.65;;;;;;;1.15;100.00;99180.50;5051701;28;20025;-96
2023/03/08 12:24:51;;;;;;;7.63;5.63;;;;;;;1.19;100.00;99194.81;5219299;22;20072;-95
2023/03/08 12:27:20;;;;;;;7.45;5.18;;;;;;;0.98;100.00;99168.06;5032469;28;20443;-96
2023/03/08 12:29:57;;;;;;;6.38;5.25;;;;;;;1.11;100.00;99189.91;5040855;28;20041;-95
2023/03/08 12:32:24;;;;;;;8.68;6.10;;;;;;;1.21;100.00;99205.94;5039171;28;20029;-94
2023/03/08 12:38:47;;;;;;;;;;;;;;;;;;;;;
2023/03/08 13:13:53;;;;;;;7.22;4.25;;;;;;;1.10;100.00;99125.81;5068541;22;20048;-91
2023/03/08 13:16:59;;;;;;;10.83;6.20;;;;;;;1.08;100.00;99125.25;5146001;22;20219;-92
2023/03/08 13:19:37;;;;;;;7.83;6.07;;;;;;;1.28;100.00;99118.72;5032436;28;20702;-90
2023/03/08 13:22:25;;;;;;;10.95;6.90;;;;;;;1.35;100.00;99133.38;5032652;28;20025;-91
2023/03/08 13:28:37;;;;;;;10.48;6.93;;;;;;;1.16;100.00;99116.13;4951690;29;20031;-92
2023/03/08 13:31:25;;;;;;;10.82;6.63;;;;;;;1.28;100.00;99156.44;5006800;28;20022;-92
2023/03/08 13:33:53;;;;;;;10.48;6.22;;;;;;;1.14;100.00;99155.16;5009607;28;20021;-92
2023/03/08 13:36:22;;;;;;;12.90;7.13;;;;;;;1.03;100.00;99141.78;5011498;28;20038;-92
2023/03/08 13:39:21;;;;;;;14.83;7.37;;;;;;;0.98;100.00;99128.50;5012206;28;20056;-93
2023/03/08 13:41:47;;;;;;;14.48;7.60;;;;;;;1.15;100.00;99146.19;5011496;28;20404;-94
2023/03/08 13:44:30;;;;;;;11.02;6.85;;;;;;;1.13;100.00;99138.53;5012003;28;20032;-93
2023/03/08 13:47:12;;;;;;;12.85;8.70;;;;;;;1.13;100.00;99132.44;5010841;28;20251;-92
2023/03/08 13:49:42;;;;;;;11.77;6.45;;;;;;;1.07;100.00;99141.31;5013236;28;20046;-94
2023/03/08 13:52:34;;;;;;;14.18;8.40;;;;;;;1.14;100.00;99144.59;5013003;28;20025;-96
2023/03/08 13:55:04;;;;;;;14.48;8.38;;;;;;;1.08;100.00;99142.91;5012105;28;20053;-94
2023/03/08 13:57:35;;;;;;;12.87;7.57;;;;;;;0.79;100.00;99119.97;5011471;28;20147;-94
2023/03/08 14:00:19;;;;;;;10.38;6.22;;;;;;;0.83;100.00;99134.28;5021791;28;20087;-95
2023/03/08 14:02:45;;;;;;;10.65;6.47;;;;;;;0.83;100.00;99128.22;5014471;28;20033;-95
2023/03/08 14:05:21;;;;;;;12.52;7.32;;;;;;;0.85;100.00;99112.97;5025718;28;20519;-96
2023/03/08 14:08:06;;;;;;;11.90;7.53;;;;;;;0.94;100.00;99130.00;5011360;28;20054;-91